< Typhoon 199015 1990 Season Typhoon 199017 >
Typhoon 199016 (BECKY)
General InformationTrack Information on Google MapsDetailed Wind InformationList of All Images || Disaster Info.ResourceGoogle EarthGE AnimationAtom FeedGeoJSON
Detalied Best Track (Time Zone = UTC)
Year Month Day Hour Lat. Long. Pressure (hPa) Wind (kt) Class Image Chart
1990 8 24 00 18.0 130.0 1002 0 2 Image Chart
1990 8 24 06 17.5 129.5 1000 0 2 Image Chart
1990 8 24 12 17.5 129.0 1000 0 2 Image Chart
1990 8 24 18 17.6 128.6 998 0 2 Image Chart
1990 8 25 00 18.3 128.4 998 0 2 Image Chart
1990 8 25 03 18.8 128.0 996 35 3 Image Chart
1990 8 25 06 19.0 127.5 996 35 3 Image Chart
1990 8 25 12 19.2 126.5 994 40 3 Image Chart
1990 8 25 18 19.0 124.8 992 45 3 Image Chart
1990 8 26 00 18.2 123.0 985 50 4 Image Chart
1990 8 26 06 18.2 122.2 980 55 4 Image Chart
1990 8 26 12 18.0 121.1 985 50 4 Image Chart
1990 8 26 18 18.0 120.0 985 50 4 Image Chart
1990 8 27 00 18.0 118.9 980 55 4 Image Chart
1990 8 27 06 17.8 117.7 975 60 4 Image Chart
1990 8 27 12 17.7 116.5 970 65 5 Image Chart
1990 8 27 18 17.7 115.2 970 65 5 Image Chart
1990 8 28 00 17.5 113.8 965 70 5 Image Chart
1990 8 28 06 17.5 112.5 965 70 5 Image Chart
1990 8 28 12 17.6 111.2 965 70 5 Image Chart
1990 8 28 18 17.8 109.9 965 70 5 Image Chart
1990 8 29 00 18.0 108.7 970 65 5 Image Chart
1990 8 29 06 18.0 107.5 975 60 4 Image Chart
1990 8 29 12 18.0 106.5 980 55 4 Image Chart
1990 8 29 18 17.6 105.2 985 45 3 Image Chart
1990 8 30 00 17.5 104.0 996 0 2 Image Chart
1990 8 30 06 17.5 103.0 998 0 2 Image Chart
Japan Meteorological Agency Best Track Data | Correction Date : 1992-10-21
< Typhoon 199015 1990 Season Typhoon 199017 >

Help